createdAt,value
2018-08-13T00:00:08.069Z,19.19
2018-08-13T00:02:01.070Z,19.31
2018-08-13T00:03:01.131Z,19.29
2018-08-13T00:04:54.121Z,19.36
2018-08-13T00:05:54.187Z,19.30
2018-08-13T00:07:47.185Z,19.30
2018-08-13T00:08:47.243Z,19.22
2018-08-13T00:10:40.241Z,19.11
2018-08-13T00:11:40.297Z,19.22
2018-08-13T00:13:33.297Z,19.22
2018-08-13T00:14:33.357Z,19.15
2018-08-13T00:16:26.874Z,19.12
2018-08-13T00:17:26.938Z,19.02
2018-08-13T00:19:19.918Z,19.12
2018-08-13T00:20:19.983Z,19.08
2018-08-13T00:22:12.983Z,19.09
2018-08-13T00:23:13.041Z,19.09
2018-08-13T00:25:06.030Z,19.15
2018-08-13T00:26:06.096Z,19.08
2018-08-13T00:27:59.095Z,19.07
2018-08-13T00:28:59.151Z,18.96
2018-08-13T00:30:52.153Z,18.88
2018-08-13T00:31:52.211Z,18.80
2018-08-13T00:33:45.203Z,18.84
2018-08-13T00:34:45.269Z,18.81
2018-08-13T00:36:38.267Z,18.83
2018-08-13T00:37:38.335Z,18.86
2018-08-13T00:39:31.320Z,18.89
2018-08-13T00:40:31.385Z,18.90
2018-08-13T00:42:24.384Z,18.98
2018-08-13T00:43:24.444Z,18.90
2018-08-13T00:45:17.453Z,19.07
2018-08-13T00:46:17.515Z,18.99
2018-08-13T00:48:10.513Z,19.04
2018-08-13T00:49:10.571Z,19.09
2018-08-13T00:51:03.571Z,19.09
2018-08-13T00:52:03.629Z,19.08
2018-08-13T00:53:56.628Z,19.12
2018-08-13T00:54:56.685Z,19.02
2018-08-13T00:56:49.684Z,19.09
2018-08-13T00:57:49.745Z,19.08
2018-08-13T00:59:42.743Z,18.99
2018-08-13T01:00:42.802Z,18.98
2018-08-13T01:02:35.802Z,19.04
2018-08-13T01:03:35.858Z,18.98
2018-08-13T01:05:28.852Z,18.88
2018-08-13T01:06:28.918Z,18.99
2018-08-13T01:08:21.921Z,18.96
2018-08-13T01:09:21.967Z,18.95
2018-08-13T01:11:14.969Z,18.98
2018-08-13T01:12:15.032Z,18.84
2018-08-13T01:14:08.034Z,18.90
2018-08-13T01:15:08.093Z,18.92
2018-08-13T01:17:02.594Z,18.95
2018-08-13T01:18:02.661Z,18.96
2018-08-13T01:19:55.660Z,19.08
2018-08-13T01:20:55.725Z,18.93
2018-08-13T01:22:48.720Z,19.11
2018-08-13T01:23:48.779Z,19.07
2018-08-13T01:25:41.771Z,18.99
2018-08-13T01:26:41.836Z,19.00
2018-08-13T01:28:34.833Z,18.99
2018-08-13T01:29:34.892Z,18.99
2018-08-13T01:31:27.907Z,19.07
2018-08-13T01:32:27.947Z,18.95
2018-08-13T01:34:20.948Z,18.96
2018-08-13T01:35:21.004Z,18.96
2018-08-13T01:37:14.015Z,18.84
2018-08-13T01:38:14.075Z,18.77
2018-08-13T01:40:07.078Z,18.68
2018-08-13T01:41:07.140Z,18.62
2018-08-13T01:43:00.141Z,18.66
2018-08-13T01:44:00.197Z,18.73
2018-08-13T01:45:53.191Z,18.73
2018-08-13T01:46:53.254Z,18.81
2018-08-13T01:48:46.250Z,18.86
2018-08-13T01:49:46.311Z,18.86
2018-08-13T01:51:39.302Z,18.96
2018-08-13T01:52:39.366Z,18.98
2018-08-13T01:54:32.366Z,19.04
2018-08-13T01:55:32.424Z,19.00
2018-08-13T01:57:25.409Z,18.98
2018-08-13T01:58:25.479Z,19.07
2018-08-13T02:00:18.487Z,19.11
2018-08-13T02:01:18.596Z,19.02
2018-08-13T02:03:11.560Z,18.96
2018-08-13T02:04:11.618Z,18.93
2018-08-13T02:06:04.611Z,18.96
2018-08-13T02:07:04.674Z,18.90
2018-08-13T02:08:57.675Z,18.98
2018-08-13T02:09:57.734Z,18.98
2018-08-13T02:11:50.731Z,18.98
2018-08-13T02:12:50.788Z,18.92
2018-08-13T02:14:43.792Z,18.92
2018-08-13T02:15:43.849Z,18.92
2018-08-13T02:17:36.864Z,18.84
2018-08-13T02:18:36.906Z,18.80
2018-08-13T02:20:29.912Z,18.96
2018-08-13T02:21:29.969Z,18.96
2018-08-13T02:23:22.963Z,19.08
2018-08-13T02:24:23.026Z,19.12
2018-08-13T02:26:16.031Z,19.04
2018-08-13T02:27:16.082Z,19.09
2018-08-13T02:29:09.140Z,19.14
2018-08-13T02:30:09.152Z,19.09
2018-08-13T02:32:02.147Z,19.11
2018-08-13T02:33:02.207Z,19.07
2018-08-13T02:34:55.207Z,19.18
2018-08-13T02:35:55.261Z,19.18
2018-08-13T02:37:48.274Z,19.14
2018-08-13T02:38:48.321Z,19.04
2018-08-13T02:40:41.318Z,19.14
2018-08-13T02:41:41.375Z,19.18
2018-08-13T02:43:34.381Z,19.29
2018-08-13T02:44:34.452Z,19.08
2018-08-13T02:46:27.448Z,19.14
2018-08-13T02:47:27.509Z,19.19
2018-08-13T02:49:20.505Z,19.22
2018-08-13T02:50:20.565Z,19.08
2018-08-13T02:52:13.564Z,19.19
2018-08-13T02:53:13.619Z,19.26
2018-08-13T02:55:06.620Z,19.21
2018-08-13T02:56:06.675Z,19.16
2018-08-13T02:57:59.705Z,19.12
2018-08-13T02:58:59.731Z,19.12
2018-08-13T03:00:52.742Z,19.12
2018-08-13T03:01:52.796Z,19.11
2018-08-13T03:03:45.796Z,19.14
2018-08-13T03:04:45.877Z,19.18
2018-08-13T03:06:38.862Z,19.22
2018-08-13T03:07:38.932Z,19.09
2018-08-13T03:09:31.929Z,19.15
2018-08-13T03:10:31.997Z,19.16
2018-08-13T03:12:24.997Z,19.11
2018-08-13T03:13:25.056Z,19.11
2018-08-13T03:15:18.049Z,19.04
2018-08-13T03:16:18.114Z,18.96
2018-08-13T03:18:11.116Z,18.80
2018-08-13T03:19:11.176Z,18.84
2018-08-13T03:21:04.182Z,18.93
2018-08-13T03:22:04.233Z,18.88
2018-08-13T03:23:57.241Z,18.89
2018-08-13T03:24:57.299Z,18.95
2018-08-13T03:26:50.317Z,18.90
2018-08-13T03:27:50.364Z,18.93
2018-08-13T03:29:43.361Z,18.92
2018-08-13T03:30:43.422Z,18.93
2018-08-13T03:32:36.423Z,19.02
2018-08-13T03:33:36.627Z,19.00
2018-08-13T03:35:29.477Z,19.04
2018-08-13T03:36:29.544Z,18.92
2018-08-13T03:38:22.542Z,18.89
2018-08-13T03:39:22.601Z,18.75
2018-08-13T03:41:15.599Z,18.73
2018-08-13T03:42:15.656Z,18.73
2018-08-13T03:44:08.651Z,18.58
2018-08-13T03:45:08.713Z,18.63
2018-08-13T03:47:01.720Z,18.62
2018-08-13T03:48:01.776Z,18.80
2018-08-13T03:49:54.774Z,18.83
2018-08-13T03:50:54.831Z,18.83
2018-08-13T03:52:47.831Z,18.83
2018-08-13T03:53:47.935Z,18.81
2018-08-13T03:55:40.889Z,18.86
2018-08-13T03:56:40.949Z,18.95
2018-08-13T03:58:33.949Z,19.00
2018-08-13T03:59:34.008Z,19.02
2018-08-13T04:01:27.000Z,19.07
2018-08-13T04:02:27.063Z,19.11
2018-08-13T04:04:20.063Z,19.11
2018-08-13T04:05:20.120Z,19.15
2018-08-13T04:07:13.119Z,19.14
2018-08-13T04:08:13.175Z,19.07
2018-08-13T04:10:06.166Z,19.09
2018-08-13T04:11:06.230Z,19.04
2018-08-13T04:12:59.296Z,18.99
2018-08-13T04:13:59.312Z,19.02
2018-08-13T04:15:52.282Z,19.09
2018-08-13T04:16:52.348Z,19.09
2018-08-13T04:18:45.351Z,19.12
2018-08-13T04:19:45.407Z,19.02
2018-08-13T04:21:38.415Z,19.08
2018-08-13T04:22:38.468Z,19.15
2018-08-13T04:24:31.476Z,19.11
2018-08-13T04:25:31.590Z,19.15
2018-08-13T04:27:24.534Z,19.27
2018-08-13T04:28:24.579Z,19.14
2018-08-13T04:30:17.573Z,19.21
2018-08-13T04:31:17.634Z,19.21
2018-08-13T04:33:10.633Z,19.26
2018-08-13T04:34:10.695Z,19.21
2018-08-13T04:36:03.683Z,19.34
2018-08-13T04:37:03.751Z,19.34
2018-08-13T04:38:56.748Z,19.31
2018-08-13T04:39:56.852Z,19.41
2018-08-13T04:41:49.805Z,19.44
2018-08-13T04:42:49.938Z,19.44
2018-08-13T04:44:42.862Z,19.44
2018-08-13T04:45:42.922Z,19.37
2018-08-13T04:47:35.913Z,19.41
2018-08-13T04:48:35.977Z,19.40
2018-08-13T04:50:28.981Z,19.39
2018-08-13T04:51:29.034Z,19.45
2018-08-13T04:53:22.037Z,19.39
2018-08-13T04:54:22.094Z,19.44
2018-08-13T04:56:15.092Z,19.29
2018-08-13T04:57:15.152Z,19.26
2018-08-13T04:59:08.149Z,19.33
2018-08-13T05:00:08.208Z,19.33
2018-08-13T05:02:01.202Z,19.31
2018-08-13T05:03:01.264Z,19.40
2018-08-13T05:04:54.269Z,19.44
2018-08-13T05:05:54.321Z,19.37
2018-08-13T05:07:47.313Z,19.45
2018-08-13T05:08:47.399Z,19.44
2018-08-13T05:10:40.380Z,19.45
2018-08-13T05:11:40.440Z,19.41
2018-08-13T05:13:33.430Z,19.40
2018-08-13T05:14:33.494Z,19.55
2018-08-13T05:16:28.003Z,19.62
2018-08-13T05:17:28.182Z,19.56
2018-08-13T05:19:21.061Z,19.54
2018-08-13T05:20:21.116Z,19.64
2018-08-13T05:22:14.115Z,19.64
2018-08-13T05:23:14.174Z,19.66
2018-08-13T05:25:07.174Z,19.74
2018-08-13T05:26:07.237Z,19.74
2018-08-13T05:28:00.226Z,19.77
2018-08-13T05:29:00.291Z,19.74
2018-08-13T05:30:53.303Z,19.81
2018-08-13T05:31:53.357Z,19.84
2018-08-13T05:33:46.358Z,19.82
2018-08-13T05:34:46.420Z,19.82
2018-08-13T05:36:39.427Z,19.88
2018-08-13T05:37:39.483Z,19.84
2018-08-13T05:39:32.486Z,19.94
2018-08-13T05:40:32.537Z,19.95
2018-08-13T05:42:25.542Z,19.95
2018-08-13T05:43:25.592Z,19.92
2018-08-13T05:45:18.591Z,20.00
2018-08-13T05:46:18.654Z,19.96
2018-08-13T05:48:11.666Z,19.99
2018-08-13T05:49:11.732Z,19.94
2018-08-13T05:51:04.731Z,20.06
2018-08-13T05:52:04.788Z,19.99
2018-08-13T05:53:57.783Z,20.03
2018-08-13T05:54:57.847Z,20.07
2018-08-13T05:56:50.848Z,20.00
2018-08-13T05:57:50.900Z,20.00
2018-08-13T05:59:44.414Z,20.03
2018-08-13T06:00:44.466Z,20.02
2018-08-13T06:02:37.464Z,20.03
2018-08-13T06:03:37.521Z,20.03
2018-08-13T06:05:30.521Z,20.03
2018-08-13T06:06:30.601Z,20.04
2018-08-13T06:08:23.576Z,20.03
2018-08-13T06:09:23.635Z,20.03
2018-08-13T06:11:16.650Z,20.00
2018-08-13T06:12:16.691Z,19.92
2018-08-13T06:14:09.685Z,19.85
2018-08-13T06:15:09.747Z,19.88
2018-08-13T06:17:02.747Z,19.99
2018-08-13T06:18:02.825Z,19.95
2018-08-13T06:19:55.790Z,20.04
2018-08-13T06:20:55.861Z,20.02
2018-08-13T06:22:48.863Z,20.22
2018-08-13T06:23:48.918Z,20.28
2018-08-13T06:25:41.913Z,20.43
2018-08-13T06:26:41.976Z,20.39
2018-08-13T06:28:34.975Z,20.26
2018-08-13T06:29:35.030Z,20.21
2018-08-13T06:31:28.031Z,20.25
2018-08-13T06:32:28.093Z,20.26
2018-08-13T06:34:21.082Z,20.14
2018-08-13T06:35:21.149Z,20.25
2018-08-13T06:37:14.199Z,20.22
2018-08-13T06:38:14.208Z,20.26
2018-08-13T06:40:07.201Z,20.13
2018-08-13T06:41:07.258Z,20.06
2018-08-13T06:43:00.265Z,20.06
2018-08-13T06:44:00.322Z,20.06
2018-08-13T06:45:53.323Z,20.06
2018-08-13T06:46:53.387Z,20.03
2018-08-13T06:48:46.385Z,20.04
2018-08-13T06:49:46.443Z,20.06
2018-08-13T06:51:39.444Z,19.86
2018-08-13T06:52:39.500Z,19.88
2018-08-13T06:54:32.491Z,19.99
2018-08-13T06:55:32.554Z,19.96
2018-08-13T06:57:25.555Z,19.96
2018-08-13T06:58:25.613Z,20.06
2018-08-13T07:00:18.608Z,20.31
2018-08-13T07:01:18.673Z,20.24
2018-08-13T07:03:11.670Z,20.44
2018-08-13T07:04:11.727Z,20.47
2018-08-13T07:06:04.790Z,20.39
2018-08-13T07:07:04.782Z,20.34
2018-08-13T07:08:57.782Z,20.26
2018-08-13T07:09:57.839Z,20.22
2018-08-13T07:11:50.840Z,20.21
2018-08-13T07:12:50.897Z,20.07
2018-08-13T07:14:43.888Z,20.03
2018-08-13T07:15:43.989Z,19.94
2018-08-13T07:17:36.953Z,19.95
2018-08-13T07:18:37.008Z,19.96
2018-08-13T07:20:30.001Z,20.04
2018-08-13T07:21:30.063Z,20.00
2018-08-13T07:23:23.063Z,19.91
2018-08-13T07:24:23.127Z,19.96
2018-08-13T07:26:16.121Z,19.79
2018-08-13T07:27:16.189Z,19.79
2018-08-13T07:29:09.188Z,19.77
2018-08-13T07:30:09.245Z,19.79
2018-08-13T07:32:02.246Z,19.69
2018-08-13T07:33:02.301Z,19.58
2018-08-13T07:34:55.294Z,19.71
2018-08-13T07:35:55.365Z,19.86
2018-08-13T07:37:48.378Z,20.10
2018-08-13T07:38:48.420Z,20.24
2018-08-13T07:40:41.410Z,20.37
2018-08-13T07:41:41.472Z,20.51
2018-08-13T07:43:34.473Z,20.69
2018-08-13T07:44:34.531Z,20.84
2018-08-13T07:46:27.569Z,21.07
2018-08-13T07:47:27.586Z,21.05
2018-08-13T07:49:20.592Z,21.27
2018-08-13T07:50:20.649Z,21.42
2018-08-13T07:52:13.669Z,21.66
2018-08-13T07:53:13.716Z,21.70
2018-08-13T07:55:06.714Z,22.20
2018-08-13T07:56:06.766Z,22.32
2018-08-13T07:57:59.773Z,22.78
2018-08-13T07:58:59.850Z,22.93
2018-08-13T08:00:52.861Z,22.69
2018-08-13T08:01:52.910Z,22.73
2018-08-13T08:03:45.915Z,22.44
2018-08-13T08:04:45.976Z,22.43
2018-08-13T08:06:38.974Z,22.33
2018-08-13T08:07:39.041Z,22.33
2018-08-13T08:09:32.046Z,22.23
2018-08-13T08:10:32.105Z,22.28
2018-08-13T08:12:25.111Z,22.57
2018-08-13T08:13:25.196Z,22.76
2018-08-13T08:15:18.195Z,22.83
2018-08-13T08:16:18.234Z,22.87
2018-08-13T08:18:11.241Z,23.08
2018-08-13T08:19:11.301Z,23.21
2018-08-13T08:21:04.301Z,23.40
2018-08-13T08:22:04.371Z,23.00
2018-08-13T08:23:57.372Z,22.59
2018-08-13T08:24:57.435Z,22.59
2018-08-13T08:26:50.454Z,22.41
2018-08-13T08:27:50.529Z,22.20
2018-08-13T08:29:43.515Z,22.13
2018-08-13T08:30:43.573Z,22.14
2018-08-13T08:32:36.580Z,22.26
2018-08-13T08:33:36.635Z,22.18
2018-08-13T08:35:29.641Z,22.17
2018-08-13T08:36:29.724Z,22.17
2018-08-13T08:38:22.725Z,22.15
2018-08-13T08:39:22.784Z,22.20
2018-08-13T08:41:15.783Z,22.39
2018-08-13T08:42:15.848Z,22.66
2018-08-13T08:44:08.853Z,22.63
2018-08-13T08:45:08.913Z,22.68
2018-08-13T08:47:01.923Z,22.78
2018-08-13T08:48:01.977Z,22.68
2018-08-13T08:49:54.978Z,22.76
2018-08-13T08:50:55.037Z,22.75
2018-08-13T08:52:48.040Z,22.66
2018-08-13T08:53:48.100Z,22.60
2018-08-13T08:55:41.096Z,22.48
2018-08-13T08:56:41.164Z,22.51
2018-08-13T08:58:34.164Z,22.39
2018-08-13T08:59:34.222Z,22.38
2018-08-13T09:01:27.217Z,22.35
2018-08-13T09:02:27.315Z,22.33
2018-08-13T09:04:20.286Z,22.48
2018-08-13T09:05:20.343Z,22.51
2018-08-13T09:07:13.339Z,22.48
2018-08-13T09:08:13.427Z,22.51
2018-08-13T09:10:06.413Z,22.44
2018-08-13T09:11:06.473Z,22.45
2018-08-13T09:12:59.474Z,22.43
2018-08-13T09:13:59.534Z,22.35
2018-08-13T09:15:52.534Z,22.43
2018-08-13T09:16:52.600Z,22.53
2018-08-13T09:18:45.613Z,22.63
2018-08-13T09:19:45.665Z,22.68
2018-08-13T09:21:38.657Z,22.75
2018-08-13T09:22:38.723Z,22.65
2018-08-13T09:24:31.733Z,22.41
2018-08-13T09:25:31.820Z,22.45
2018-08-13T09:27:24.783Z,22.45
2018-08-13T09:28:24.890Z,22.59
2018-08-13T09:30:17.877Z,22.65
2018-08-13T09:31:17.944Z,22.59
2018-08-13T09:33:10.938Z,22.73
2018-08-13T09:34:10.990Z,22.75
2018-08-13T09:36:04.001Z,22.91
2018-08-13T09:37:04.048Z,22.99
2018-08-13T09:38:57.063Z,23.18
2018-08-13T09:39:57.124Z,23.23
2018-08-13T09:41:50.121Z,23.03
2018-08-13T09:42:50.185Z,22.91
2018-08-13T09:44:43.200Z,22.83
2018-08-13T09:45:43.246Z,22.90
2018-08-13T09:47:36.242Z,22.85
2018-08-13T09:48:36.311Z,22.88
2018-08-13T09:50:29.335Z,22.83
2018-08-13T09:51:29.369Z,23.12
2018-08-13T09:53:22.368Z,24.14
2018-08-13T09:54:22.434Z,24.51
2018-08-13T09:56:15.453Z,24.76
2018-08-13T09:57:15.512Z,24.80
2018-08-13T09:59:08.516Z,24.99
2018-08-13T10:00:08.584Z,24.86
2018-08-13T10:02:01.577Z,24.54
2018-08-13T10:03:01.642Z,24.58
2018-08-13T10:04:54.650Z,24.36
2018-08-13T10:05:54.710Z,24.11
2018-08-13T10:07:47.713Z,23.92
2018-08-13T10:08:47.781Z,23.91
2018-08-13T10:10:40.817Z,24.01
2018-08-13T10:11:40.846Z,24.08
2018-08-13T10:13:33.847Z,24.29
2018-08-13T10:14:33.912Z,24.58
2018-08-13T10:16:26.922Z,24.84
2018-08-13T10:17:26.988Z,25.01
2018-08-13T10:19:19.985Z,25.40
2018-08-13T10:20:20.041Z,25.38
2018-08-13T10:22:13.042Z,25.10
2018-08-13T10:23:13.109Z,25.33
2018-08-13T10:25:06.112Z,25.78
2018-08-13T10:26:06.172Z,25.70
2018-08-13T10:27:59.173Z,25.51
2018-08-13T10:28:59.239Z,25.33
2018-08-13T10:30:52.243Z,25.41
2018-08-13T10:31:52.311Z,25.48
2018-08-13T10:33:45.309Z,25.58
2018-08-13T10:34:45.379Z,25.66
2018-08-13T10:36:38.382Z,25.68
2018-08-13T10:37:38.450Z,25.44
2018-08-13T10:39:31.454Z,25.84
2018-08-13T10:40:31.514Z,26.06
2018-08-13T10:42:24.517Z,26.33
2018-08-13T10:43:24.641Z,26.33
2018-08-13T10:45:17.596Z,26.02
2018-08-13T10:46:17.656Z,25.88
2018-08-13T10:48:10.660Z,25.68
2018-08-13T10:49:10.729Z,25.63
2018-08-13T10:51:03.736Z,25.40
2018-08-13T10:52:03.795Z,25.43
2018-08-13T10:53:56.820Z,25.40
2018-08-13T10:54:56.866Z,25.40
2018-08-13T10:56:49.878Z,25.53
2018-08-13T10:57:49.940Z,25.50
2018-08-13T10:59:43.456Z,25.10
2018-08-13T11:00:43.524Z,25.36
2018-08-13T11:02:36.534Z,25.04
2018-08-13T11:03:36.605Z,25.06
2018-08-13T11:05:29.613Z,24.86
2018-08-13T11:06:29.673Z,24.80
2018-08-13T11:08:22.672Z,24.78
2018-08-13T11:09:22.740Z,24.80
2018-08-13T11:11:15.742Z,24.69
2018-08-13T11:12:15.803Z,24.63
2018-08-13T11:14:08.814Z,24.65
2018-08-13T11:15:08.875Z,24.85
2018-08-13T11:17:01.899Z,25.33
2018-08-13T11:18:01.946Z,25.55
2018-08-13T11:19:54.953Z,25.81
2018-08-13T11:20:55.016Z,26.03
2018-08-13T11:22:48.066Z,26.44
2018-08-13T11:23:48.094Z,26.21
2018-08-13T11:25:41.101Z,25.65
2018-08-13T11:26:41.163Z,25.44
2018-08-13T11:28:34.160Z,25.07
2018-08-13T11:29:34.227Z,25.11
2018-08-13T11:31:27.234Z,25.43
2018-08-13T11:32:27.311Z,25.55
2018-08-13T11:34:20.295Z,25.68
2018-08-13T11:35:20.370Z,25.90
2018-08-13T11:37:13.363Z,26.07
2018-08-13T11:38:13.424Z,26.06
2018-08-13T11:40:06.482Z,26.09
2018-08-13T11:41:06.497Z,25.98
2018-08-13T11:42:59.499Z,26.03
2018-08-13T11:43:59.561Z,25.96
2018-08-13T11:45:52.590Z,25.85
2018-08-13T11:46:52.623Z,26.02
2018-08-13T11:48:45.630Z,25.95
2018-08-13T11:49:45.701Z,25.88
2018-08-13T11:51:38.709Z,26.23
2018-08-13T11:52:38.767Z,26.25
2018-08-13T11:54:31.764Z,26.48
2018-08-13T11:55:31.833Z,26.62
2018-08-13T11:57:24.838Z,26.53
2018-08-13T11:58:24.905Z,26.31
2018-08-13T12:00:19.435Z,26.06
2018-08-13T12:01:19.474Z,26.31
2018-08-13T12:03:12.475Z,26.60
2018-08-13T12:04:12.561Z,26.74
2018-08-13T12:06:05.551Z,26.56
2018-08-13T12:07:05.606Z,26.29
2018-08-13T12:08:58.608Z,26.23
2018-08-13T12:09:58.675Z,26.19
2018-08-13T12:11:51.679Z,25.90
2018-08-13T12:12:51.744Z,25.98
2018-08-13T12:14:44.767Z,26.25
2018-08-13T12:15:44.807Z,26.21
2018-08-13T12:17:37.812Z,25.78
2018-08-13T12:18:37.872Z,25.72
2018-08-13T12:20:30.869Z,25.73
2018-08-13T12:21:30.942Z,25.73
2018-08-13T12:23:23.958Z,25.83
2018-08-13T12:24:24.018Z,26.09
2018-08-13T12:26:17.060Z,26.40
2018-08-13T12:27:17.090Z,26.44
2018-08-13T12:29:10.090Z,26.41
2018-08-13T12:30:10.162Z,26.47
2018-08-13T12:32:03.156Z,26.56
2018-08-13T12:33:03.224Z,26.58
2018-08-13T12:34:56.235Z,26.63
2018-08-13T12:35:56.295Z,26.62
2018-08-13T12:37:49.303Z,26.41
2018-08-13T12:38:49.366Z,26.31
2018-08-13T12:40:42.372Z,26.07
2018-08-13T12:41:42.437Z,26.23
2018-08-13T12:43:35.450Z,26.55
2018-08-13T12:44:35.495Z,26.52
2018-08-13T12:46:28.515Z,26.31
2018-08-13T12:47:28.575Z,26.22
2018-08-13T12:49:21.575Z,26.06
2018-08-13T12:50:21.647Z,26.19
2018-08-13T12:52:14.650Z,26.21
2018-08-13T12:53:14.711Z,26.25
2018-08-13T12:55:07.710Z,26.02
2018-08-13T12:56:07.776Z,26.03
2018-08-13T12:58:00.792Z,25.95
2018-08-13T12:59:00.848Z,25.78
2018-08-13T13:00:53.852Z,25.50
2018-08-13T13:01:53.921Z,25.41
2018-08-13T13:03:46.925Z,25.26
2018-08-13T13:04:46.986Z,25.22
2018-08-13T13:06:39.990Z,25.07
2018-08-13T13:07:40.051Z,25.14
2018-08-13T13:09:33.051Z,25.18
2018-08-13T13:10:33.119Z,25.03
2018-08-13T13:12:26.133Z,25.06
2018-08-13T13:13:26.193Z,24.85
2018-08-13T13:15:19.199Z,24.92
2018-08-13T13:16:19.270Z,24.96
2018-08-13T13:18:12.271Z,24.84
2018-08-13T13:19:12.328Z,24.95
2018-08-13T13:21:05.347Z,24.78
2018-08-13T13:22:05.402Z,24.80
2018-08-13T13:23:58.394Z,24.66
2018-08-13T13:24:58.454Z,24.60
2018-08-13T13:26:51.468Z,24.57
2018-08-13T13:27:51.531Z,24.54
2018-08-13T13:29:44.527Z,24.60
2018-08-13T13:30:44.597Z,24.57
2018-08-13T13:32:37.598Z,24.35
2018-08-13T13:33:37.657Z,24.29
2018-08-13T13:35:30.659Z,24.03
2018-08-13T13:36:30.723Z,24.01
2018-08-13T13:38:23.749Z,24.03
2018-08-13T13:39:23.810Z,23.98
2018-08-13T13:41:16.812Z,24.01
2018-08-13T13:42:16.879Z,24.08
2018-08-13T13:44:09.886Z,24.02
2018-08-13T13:45:09.946Z,23.93
2018-08-13T13:47:02.952Z,23.96
2018-08-13T13:48:03.010Z,23.84
2018-08-13T13:49:56.007Z,23.74
2018-08-13T13:50:56.074Z,23.71
2018-08-13T13:52:49.075Z,23.69
2018-08-13T13:53:49.133Z,23.69
2018-08-13T13:55:42.134Z,23.65
2018-08-13T13:56:42.200Z,23.69
2018-08-13T13:58:35.240Z,23.68
2018-08-13T13:59:35.272Z,23.74
2018-08-13T14:01:28.267Z,23.62
2018-08-13T14:02:28.340Z,23.59
2018-08-13T14:04:21.342Z,23.08
2018-08-13T14:05:21.404Z,22.02
2018-08-13T14:07:14.403Z,20.97
2018-08-13T14:08:14.463Z,20.58
2018-08-13T14:10:07.464Z,19.91
2018-08-13T14:11:07.524Z,19.71
2018-08-13T14:13:00.531Z,19.41
2018-08-13T14:14:00.585Z,19.40
2018-08-13T14:15:53.585Z,19.40
2018-08-13T14:16:53.649Z,19.27
2018-08-13T14:18:46.651Z,19.36
2018-08-13T14:19:46.711Z,19.31
2018-08-13T14:21:39.705Z,19.39
2018-08-13T14:22:39.769Z,19.49
2018-08-13T14:24:32.768Z,19.66
2018-08-13T14:25:32.831Z,19.76
2018-08-13T14:27:25.829Z,19.84
2018-08-13T14:28:25.911Z,19.86
2018-08-13T14:30:18.905Z,20.21
2018-08-13T14:31:18.969Z,20.37
2018-08-13T14:33:11.971Z,20.66
2018-08-13T14:34:12.072Z,20.75
2018-08-13T14:36:05.021Z,20.96
2018-08-13T14:37:05.085Z,20.99
2018-08-13T14:38:58.081Z,21.12
2018-08-13T14:39:58.247Z,21.18
2018-08-13T14:41:51.138Z,21.43
2018-08-13T14:42:51.206Z,21.50
2018-08-13T14:44:44.203Z,21.70
2018-08-13T14:45:44.261Z,21.67
2018-08-13T14:47:37.268Z,21.82
2018-08-13T14:48:37.326Z,21.89
2018-08-13T14:50:30.315Z,21.70
2018-08-13T14:51:30.385Z,21.79
2018-08-13T14:53:23.386Z,21.77
2018-08-13T14:54:23.436Z,21.77
2018-08-13T14:56:16.454Z,21.75
2018-08-13T14:57:16.523Z,21.83
2018-08-13T14:59:09.532Z,21.69
2018-08-13T15:00:09.587Z,21.72
2018-08-13T15:02:03.589Z,21.73
2018-08-13T15:03:03.658Z,21.64
2018-08-13T15:04:56.663Z,21.58
2018-08-13T15:05:56.719Z,21.64
2018-08-13T15:07:49.717Z,21.67
2018-08-13T15:08:49.777Z,21.67
2018-08-13T15:10:42.771Z,21.70
2018-08-13T15:11:42.838Z,21.76
2018-08-13T15:13:35.841Z,21.69
2018-08-13T15:14:35.890Z,21.80
2018-08-13T15:16:28.908Z,21.70
2018-08-13T15:17:28.977Z,21.61
2018-08-13T15:19:21.977Z,21.51
2018-08-13T15:20:22.036Z,21.43
2018-08-13T15:22:15.081Z,21.35
2018-08-13T15:23:15.116Z,21.29
2018-08-13T15:25:08.097Z,21.35
2018-08-13T15:26:08.156Z,21.24
2018-08-13T15:28:01.216Z,21.30
2018-08-13T15:29:01.237Z,21.30
2018-08-13T15:30:54.220Z,21.32
2018-08-13T15:31:54.287Z,21.37
2018-08-13T15:33:47.288Z,21.29
2018-08-13T15:34:47.348Z,21.25
2018-08-13T15:36:40.342Z,21.27
2018-08-13T15:37:40.407Z,21.40
2018-08-13T15:39:33.409Z,21.50
2018-08-13T15:40:33.476Z,21.57
2018-08-13T15:42:26.459Z,21.75
2018-08-13T15:43:26.525Z,21.91
2018-08-13T15:45:19.533Z,22.22
2018-08-13T15:46:19.585Z,22.30
2018-08-13T15:48:12.584Z,22.55
2018-08-13T15:49:12.643Z,22.60
2018-08-13T15:51:05.657Z,22.51
2018-08-13T15:52:05.702Z,22.55
2018-08-13T15:53:58.704Z,22.47
2018-08-13T15:54:58.763Z,22.47
2018-08-13T15:56:51.764Z,22.30
2018-08-13T15:57:51.831Z,22.20
2018-08-13T15:59:44.830Z,22.25
2018-08-13T16:00:44.887Z,22.28
2018-08-13T16:02:37.896Z,22.07
2018-08-13T16:03:37.960Z,22.07
2018-08-13T16:05:30.973Z,21.92
2018-08-13T16:06:31.021Z,21.93
2018-08-13T16:08:24.026Z,21.85
2018-08-13T16:09:24.089Z,21.75
2018-08-13T16:11:17.082Z,21.88
2018-08-13T16:12:17.149Z,21.98
2018-08-13T16:14:10.155Z,21.88
2018-08-13T16:15:10.220Z,22.00
2018-08-13T16:17:03.224Z,21.83
2018-08-13T16:18:03.276Z,21.72
2018-08-13T16:19:56.278Z,21.82
2018-08-13T16:20:56.335Z,21.66
2018-08-13T16:22:49.364Z,21.57
2018-08-13T16:23:49.429Z,21.61
2018-08-13T16:25:42.433Z,21.50
2018-08-13T16:26:42.559Z,21.51
2018-08-13T16:28:35.486Z,21.39
2018-08-13T16:29:35.551Z,21.39
2018-08-13T16:31:28.552Z,21.30
2018-08-13T16:32:28.614Z,21.21
2018-08-13T16:34:21.614Z,21.18
2018-08-13T16:35:21.672Z,21.17
2018-08-13T16:37:14.674Z,21.24
2018-08-13T16:38:14.733Z,21.29
2018-08-13T16:40:07.736Z,21.27
2018-08-13T16:41:07.794Z,21.18
2018-08-13T16:43:00.791Z,21.21
2018-08-13T16:44:00.854Z,21.25
2018-08-13T16:45:53.852Z,21.15
2018-08-13T16:46:53.914Z,21.14
2018-08-13T16:48:46.914Z,21.09
2018-08-13T16:49:46.973Z,21.12
2018-08-13T16:51:39.964Z,21.12
2018-08-13T16:52:40.032Z,21.06
2018-08-13T16:54:33.032Z,21.06
2018-08-13T16:55:33.115Z,20.99
2018-08-13T16:57:26.090Z,21.03
2018-08-13T16:58:26.148Z,21.09
2018-08-13T17:00:19.150Z,21.05
2018-08-13T17:01:19.211Z,21.00
2018-08-13T17:03:12.204Z,20.92
2018-08-13T17:04:12.270Z,20.93
2018-08-13T17:06:05.273Z,20.95
2018-08-13T17:07:05.332Z,21.02
2018-08-13T17:08:58.356Z,21.14
2018-08-13T17:09:58.398Z,21.35
2018-08-13T17:11:51.401Z,21.45
2018-08-13T17:12:51.486Z,21.54
2018-08-13T17:14:44.500Z,21.43
2018-08-13T17:15:44.533Z,21.48
2018-08-13T17:17:37.534Z,21.43
2018-08-13T17:18:37.595Z,21.45
2018-08-13T17:20:30.596Z,21.20
2018-08-13T17:21:30.655Z,21.24
2018-08-13T17:23:23.657Z,21.03
2018-08-13T17:24:23.723Z,20.90
2018-08-13T17:26:16.723Z,20.81
2018-08-13T17:27:16.782Z,20.80
2018-08-13T17:29:09.796Z,20.67
2018-08-13T17:30:09.841Z,20.77
2018-08-13T17:32:02.834Z,20.70
2018-08-13T17:33:02.901Z,20.63
2018-08-13T17:34:55.925Z,20.63
2018-08-13T17:35:55.968Z,20.65
2018-08-13T17:37:48.959Z,20.56
2018-08-13T17:38:49.027Z,20.55
2018-08-13T17:40:42.024Z,20.62
2018-08-13T17:41:42.094Z,20.56
2018-08-13T17:43:35.088Z,20.52
2018-08-13T17:44:35.153Z,20.56
2018-08-13T17:46:28.159Z,20.50
2018-08-13T17:47:28.218Z,20.55
2018-08-13T17:49:21.217Z,20.32
2018-08-13T17:50:21.274Z,20.48
2018-08-13T17:52:14.268Z,20.26
2018-08-13T17:53:14.332Z,20.25
2018-08-13T17:55:07.334Z,20.24
2018-08-13T17:56:07.398Z,20.14
2018-08-13T17:58:00.394Z,20.16
2018-08-13T17:59:00.462Z,20.18
2018-08-13T18:00:53.464Z,20.14
2018-08-13T18:01:53.550Z,20.10
2018-08-13T18:03:46.508Z,20.11
2018-08-13T18:04:46.586Z,20.13
2018-08-13T18:06:39.592Z,20.09
2018-08-13T18:07:39.650Z,20.07
2018-08-13T18:09:32.657Z,20.04
2018-08-13T18:10:32.709Z,19.95
2018-08-13T18:19:25.433Z,19.91
2018-08-13T18:20:25.498Z,19.85
2018-08-13T18:22:18.496Z,19.74
2018-08-13T18:23:18.553Z,19.82
2018-08-13T18:25:11.558Z,19.76
2018-08-13T18:26:11.619Z,19.56
2018-08-13T18:28:04.612Z,19.71
2018-08-13T18:29:04.719Z,19.66
2018-08-13T18:30:57.676Z,19.64
2018-08-13T18:31:57.722Z,19.63
2018-08-13T18:33:50.729Z,19.71
2018-08-13T18:34:50.815Z,19.59
2018-08-13T18:36:43.792Z,19.58
2018-08-13T18:37:43.863Z,19.56
2018-08-13T18:39:36.834Z,19.49
2018-08-13T18:40:36.905Z,19.45